Time;durP1;ratioP1;P1;durP2;ratioP2;P2;SDS_P1;SDS_P2;PMS_P1;PMS_P2;Temp;Humidity;BMP_temperature;BMP_pressure;BME280_temperature;BME280_humidity;BME280_pressure;Samples;Min_cycle;Max_cycle;Signal;HPM_P1;HPM_P2
2022/02/08 00:02:20;;;;;;;1999.90;999.90;;;7.10;99.90;;;;;;5035367;28;20414;-76
2022/02/08 00:04:54;;;;;;;1999.90;999.90;;;6.80;99.90;;;;;;5035979;28;20422;-77
2022/02/08 00:10:29;;;;;;;1999.90;999.90;;;6.50;99.90;;;;;;5013313;28;20502;-77
2022/02/08 00:12:57;;;;;;;1999.90;999.90;;;6.50;99.90;;;;;;5074260;22;20446;-76
2022/02/08 00:15:23;;;;;;;1999.90;999.90;;;6.40;99.90;;;;;;5033097;28;20454;-76
2022/02/08 00:17:49;;;;;;;1999.90;999.90;;;6.30;99.90;;;;;;5033289;28;20457;-76
2022/02/08 00:20:15;;;;;;;1999.90;999.90;;;6.30;99.90;;;;;;5033186;28;20745;-76
2022/02/08 00:22:40;;;;;;;1999.90;999.90;;;6.20;99.90;;;;;;5033101;28;20243;-77
2022/02/08 00:25:07;;;;;;;1999.90;999.90;;;6.20;99.90;;;;;;5032880;28;20247;-77
2022/02/08 00:27:33;;;;;;;1999.90;999.90;;;6.20;99.90;;;;;;5033023;28;20251;-76
2022/02/08 00:29:59;;;;;;;1999.90;999.90;;;6.20;99.90;;;;;;5033117;28;20421;-76
2022/02/08 00:32:25;;;;;;;1999.90;999.90;;;6.20;99.90;;;;;;5032994;28;20403;-76
2022/02/08 00:34:50;;;;;;;1999.90;999.90;;;6.20;99.90;;;;;;5032513;28;20455;-77
2022/02/08 00:37:16;;;;;;;1999.90;999.90;;;6.20;99.90;;;;;;5033036;28;20580;-77
2022/02/08 00:39:43;;;;;;;1999.90;999.90;;;6.20;99.90;;;;;;5032897;28;20164;-76
2022/02/08 00:42:09;;;;;;;1999.90;999.90;;;6.20;99.90;;;;;;5031511;28;20476;-77
2022/02/08 00:44:45;;;;;;;1999.90;999.90;;;6.20;99.90;;;;;;5032418;28;20435;-76
2022/02/08 00:49:44;;;;;;;1999.90;999.90;;;6.20;99.90;;;;;;5032802;28;20168;-76
2022/02/08 00:52:16;;;;;;;1999.90;999.90;;;6.20;99.90;;;;;;5032674;28;20413;-77
2022/02/08 00:54:46;;;;;;;1999.90;999.90;;;6.10;99.90;;;;;;5032265;28;20674;-77
2022/02/08 00:57:12;;;;;;;1999.90;999.90;;;6.10;99.90;;;;;;5032615;28;20407;-76
2022/02/08 00:59:38;;;;;;;1999.90;999.90;;;6.10;99.90;;;;;;5032556;28;20403;-76
2022/02/08 01:02:06;;;;;;;1999.90;999.90;;;6.00;99.90;;;;;;5032533;28;20926;-76
2022/02/08 01:04:33;;;;;;;1999.90;999.90;;;6.00;99.90;;;;;;5032119;28;20298;-76
2022/02/08 01:06:59;;;;;;;1999.90;999.90;;;6.00;99.90;;;;;;5032367;28;20453;-76
2022/02/08 01:09:50;;;;;;;1999.90;999.90;;;6.10;99.90;;;;;;5032324;28;20485;-77
2022/02/08 01:12:12;;;;;;;1999.90;999.90;;;6.10;99.90;;;;;;5031730;28;20433;-77
2022/02/08 01:14:40;;;;;;;1999.90;999.90;;;6.00;99.90;;;;;;5031771;28;20465;-77
2022/02/08 01:17:09;;;;;;;1999.90;999.90;;;6.00;99.90;;;;;;5032504;28;20246;-77
2022/02/08 01:19:38;;;;;;;1999.90;999.90;;;6.00;99.90;;;;;;5032131;28;20637;-76
2022/02/08 01:22:04;;;;;;;1999.90;999.90;;;5.90;99.90;;;;;;5032197;28;20901;-76
2022/02/08 01:24:29;;;;;;;1999.90;999.90;;;5.90;99.90;;;;;;5031809;28;20427;-77
2022/02/08 01:27:06;;;;;;;1999.90;999.90;;;6.00;99.90;;;;;;5032091;28;20251;-76
2022/02/08 01:32:13;;;;;;;1999.90;999.90;;;6.00;99.90;;;;;;5035873;28;20403;-78
2022/02/08 01:45:05;;;;;;;1999.90;999.90;;;6.10;99.90;;;;;;5032697;28;20490;-77
2022/02/08 01:47:43;;;;;;;1999.90;999.90;;;6.10;99.90;;;;;;5032824;28;20254;-77
2022/02/08 01:50:15;;;;;;;1999.90;999.90;;;6.20;99.90;;;;;;5032507;28;20399;-77
2022/02/08 01:52:41;;;;;;;1999.90;999.90;;;6.20;99.90;;;;;;5032349;28;20169;-77
2022/02/08 01:55:09;;;;;;;1999.90;999.90;;;6.20;99.90;;;;;;5032075;28;20987;-77
2022/02/08 01:57:36;;;;;;;1999.90;999.90;;;6.20;99.90;;;;;;5033407;28;20904;-77
2022/02/08 02:00:05;;;;;;;1999.90;999.90;;;6.30;99.90;;;;;;5036340;28;20402;-77
2022/02/08 02:02:31;;;;;;;1999.90;999.90;;;6.30;99.90;;;;;;5038836;28;20406;-76
2022/02/08 02:04:56;;;;;;;1999.90;999.90;;;6.30;99.90;;;;;;5039757;28;20426;-77
2022/02/08 02:07:22;;;;;;;1999.90;999.90;;;6.30;99.90;;;;;;5041604;28;20546;-78
2022/02/08 02:09:48;;;;;;;1999.90;999.90;;;6.40;99.90;;;;;;5038743;28;20267;-78
2022/02/08 02:12:14;;;;;;;1999.90;999.90;;;6.40;99.90;;;;;;5041529;28;21106;-78
2022/02/08 02:14:41;;;;;;;1999.90;999.90;;;6.40;99.90;;;;;;5038262;28;20775;-78
2022/02/08 02:17:08;;;;;;;1999.90;999.90;;;6.40;99.90;;;;;;5043149;28;20862;-77
2022/02/08 02:19:35;;;;;;;1999.90;999.90;;;6.50;99.90;;;;;;5041328;28;20410;-78
2022/02/08 02:22:03;;;;;;;1999.90;999.90;;;6.50;99.90;;;;;;5040335;28;20545;-76
2022/02/08 02:24:28;;;;;;;1999.90;999.90;;;6.50;99.90;;;;;;5040577;28;20966;-79
2022/02/08 02:26:57;;;;;;;1999.90;999.90;;;6.60;99.90;;;;;;5043578;28;20402;-78
2022/02/08 02:29:29;;;;;;;1999.90;999.90;;;6.60;99.90;;;;;;5030772;28;20176;-75
2022/02/08 02:31:57;;;;;;;1999.90;999.90;;;6.60;99.90;;;;;;5051696;28;20407;-78
2022/02/08 02:34:23;;;;;;;1999.90;999.90;;;6.50;99.90;;;;;;5048527;28;20470;-78
2022/02/08 02:36:49;;;;;;;1999.90;999.90;;;6.50;99.90;;;;;;5041409;28;20482;-77
2022/02/08 02:39:15;;;;;;;1999.90;999.90;;;6.40;99.90;;;;;;5045120;28;20450;-77
2022/02/08 02:41:43;;;;;;;1999.90;999.90;;;6.50;99.90;;;;;;5041603;28;20419;-77
2022/02/08 02:44:11;;;;;;;1999.90;999.90;;;6.50;99.90;;;;;;5043941;28;20435;-78
2022/02/08 02:46:39;;;;;;;1999.90;999.90;;;6.60;99.90;;;;;;5041424;28;20784;-77
2022/02/08 02:49:05;;;;;;;1999.90;999.90;;;6.50;99.90;;;;;;5029230;28;20423;-76
2022/02/08 02:51:31;;;;;;;1999.90;999.90;;;6.60;99.90;;;;;;5035006;28;20416;-77
2022/02/08 02:53:58;;;;;;;1999.90;999.90;;;6.60;99.90;;;;;;5034675;28;20443;-76
2022/02/08 02:56:24;;;;;;;1999.90;999.90;;;6.60;99.90;;;;;;5034636;28;20407;-77
2022/02/08 02:58:50;;;;;;;1999.90;999.90;;;6.70;99.90;;;;;;5034812;28;20407;-76
2022/02/08 03:02:00;;;;;;;1999.90;999.90;;;6.80;99.90;;;;;;5034694;28;20172;-77
2022/02/08 03:20:14;;;;;;;1999.90;999.90;;;7.10;99.90;;;;;;5050353;28;20433;-76
2022/02/08 03:22:40;;;;;;;1999.90;999.90;;;7.20;99.90;;;;;;5048036;28;20510;-75
2022/02/08 03:25:06;;;;;;;1999.90;999.90;;;7.20;99.90;;;;;;5047913;28;20179;-76
2022/02/08 03:27:31;;;;;;;1999.90;999.90;;;7.20;99.90;;;;;;5048255;28;20195;-76
2022/02/08 03:29:57;;;;;;;1999.90;999.90;;;7.30;99.90;;;;;;5049999;28;20414;-77
2022/02/08 03:32:23;;;;;;;1999.90;999.90;;;7.30;99.90;;;;;;5044975;28;20208;-78
2022/02/08 03:34:49;;;;;;;1999.90;999.90;;;7.30;99.90;;;;;;5043327;28;20193;-77
2022/02/08 03:37:15;;;;;;;1999.90;999.90;;;7.30;99.90;;;;;;5044841;28;20415;-77
2022/02/08 03:39:43;;;;;;;1999.90;999.90;;;7.30;99.90;;;;;;5047212;28;20175;-77
2022/02/08 03:42:22;;;;;;;1999.90;999.90;;;7.30;99.90;;;;;;5047475;28;20409;-78
2022/02/08 03:44:49;;;;;;;1999.90;999.90;;;7.30;99.90;;;;;;5039243;28;20427;-76
2022/02/08 03:47:17;;;;;;;1999.90;999.90;;;7.30;99.90;;;;;;5033829;28;20446;-76
2022/02/08 03:49:43;;;;;;;1999.90;999.90;;;7.40;99.90;;;;;;5033778;28;20499;-76
2022/02/08 03:52:09;;;;;;;1999.90;999.90;;;7.30;99.90;;;;;;5033747;28;20497;-77
2022/02/08 03:54:36;;;;;;;1999.90;999.90;;;7.30;99.90;;;;;;5032088;28;20253;-76
2022/02/08 03:57:04;;;;;;;1999.90;999.90;;;7.40;99.90;;;;;;5033681;28;20597;-77
2022/02/08 03:59:30;;;;;;;1999.90;999.90;;;7.40;99.90;;;;;;5033996;28;20403;-77
2022/02/08 04:02:24;;;;;;;1999.90;999.90;;;7.40;99.90;;;;;;5033734;28;20403;-77
2022/02/08 04:05:07;;;;;;;1999.90;999.90;;;7.40;99.90;;;;;;5033479;28;20210;-77
2022/02/08 04:07:42;;;;;;;1999.90;999.90;;;7.40;99.90;;;;;;5033672;28;20497;-77
2022/02/08 04:10:09;;;;;;;1999.90;999.90;;;7.40;99.90;;;;;;5033677;28;20398;-77
2022/02/08 04:31:39;;;;;;;1999.90;999.90;;;7.20;99.90;;;;;;5033815;28;20405;-77
2022/02/08 04:41:47;;;;;;;1999.90;999.90;;;7.20;99.90;;;;;;5033852;28;20168;-77
2022/02/08 04:44:41;;;;;;;1999.90;999.90;;;7.20;99.90;;;;;;5033258;28;20524;-77
2022/02/08 04:47:28;;;;;;;1999.90;999.90;;;7.10;99.90;;;;;;5032249;28;20416;-78
2022/02/08 04:49:55;;;;;;;1999.90;999.90;;;7.20;99.90;;;;;;5033146;28;20403;-77
2022/02/08 04:52:23;;;;;;;1999.90;999.90;;;7.20;99.90;;;;;;5033127;28;20819;-77
2022/02/08 04:55:27;;;;;;;1999.90;999.90;;;7.20;99.90;;;;;;5031270;28;20459;-78
2022/02/08 05:43:16;;;;;;;1999.90;999.90;;;7.60;99.90;;;;;;5034913;28;20466;-78
2022/02/08 05:48:25;;;;;;;1999.90;999.90;;;7.60;99.90;;;;;;5036083;28;20419;-78
2022/02/08 05:56:06;;;;;;;1999.90;999.90;;;7.60;99.90;;;;;;5036203;28;20415;-77
2022/02/08 05:58:31;;;;;;;1999.90;999.90;;;7.60;99.90;;;;;;5035455;28;20545;-78
2022/02/08 06:00:57;;;;;;;1999.90;999.90;;;7.60;99.90;;;;;;5033498;28;20199;-78
2022/02/08 06:03:23;;;;;;;1999.90;999.90;;;7.60;99.90;;;;;;5035165;28;20184;-77
2022/02/08 06:05:50;;;;;;;1999.90;999.90;;;7.60;99.90;;;;;;5035776;28;20210;-78
2022/02/08 06:08:15;;;;;;;1999.90;999.90;;;7.70;99.90;;;;;;5035297;28;20467;-78
2022/02/08 06:10:49;;;;;;;1999.90;999.90;;;7.70;99.90;;;;;;5034617;28;20453;-78
2022/02/08 06:13:16;;;;;;;1999.90;999.90;;;7.70;99.90;;;;;;5035660;28;20196;-78
2022/02/08 06:15:43;;;;;;;1999.90;999.90;;;7.80;99.90;;;;;;5035804;28;20454;-78
2022/02/08 06:18:09;;;;;;;1999.90;999.90;;;7.70;99.90;;;;;;5036284;28;20403;-78
2022/02/08 06:20:34;;;;;;;1999.90;999.90;;;7.70;99.90;;;;;;5036168;28;20395;-78
2022/02/08 06:23:01;;;;;;;1999.90;999.90;;;7.80;99.90;;;;;;5036301;28;20185;-78
2022/02/08 06:25:26;;;;;;;1999.90;999.90;;;7.90;99.90;;;;;;5036307;28;20657;-78
2022/02/08 06:27:52;;;;;;;1999.90;999.90;;;7.90;99.90;;;;;;5035953;28;20413;-79
2022/02/08 06:30:21;;;;;;;1999.90;999.90;;;7.90;99.90;;;;;;5036178;28;20179;-78
2022/02/08 06:32:46;;;;;;;1999.90;999.90;;;7.90;99.90;;;;;;5036615;28;20168;-78
2022/02/08 06:35:18;;;;;;;1999.90;999.90;;;8.00;99.90;;;;;;5035590;28;20450;-76
2022/02/08 06:37:44;;;;;;;1999.90;999.90;;;7.90;99.90;;;;;;5034878;28;20610;-77
2022/02/08 06:40:11;;;;;;;1999.90;999.90;;;7.90;99.90;;;;;;5035883;28;20440;-78
2022/02/08 06:42:38;;;;;;;1999.90;999.90;;;7.90;99.90;;;;;;5035793;28;20160;-77
2022/02/08 06:45:06;;;;;;;1999.90;999.90;;;7.90;99.90;;;;;;5037884;28;20407;-78
2022/02/08 06:47:32;;;;;;;1999.90;999.90;;;7.90;99.90;;;;;;5038285;28;20417;-77
2022/02/08 06:49:58;;;;;;;1999.90;999.90;;;7.90;99.90;;;;;;5038299;28;20403;-77
2022/02/08 06:52:24;;;;;;;1999.90;999.90;;;7.90;99.90;;;;;;5038931;28;20411;-78
2022/02/08 06:54:50;;;;;;;1999.90;999.90;;;7.80;99.90;;;;;;5038567;28;20457;-78
2022/02/08 06:57:17;;;;;;;1999.90;999.90;;;7.80;99.90;;;;;;5038288;28;20407;-78
2022/02/08 06:59:50;;;;;;;1999.90;999.90;;;7.80;99.90;;;;;;5037580;28;20669;-77
2022/02/08 07:02:15;;;;;;;1999.90;999.90;;;7.90;99.90;;;;;;5034786;28;20747;-77
2022/02/08 07:04:41;;;;;;;1999.90;999.90;;;7.80;99.90;;;;;;5034493;28;20437;-77
2022/02/08 07:07:09;;;;;;;1999.90;999.90;;;7.80;99.90;;;;;;5034894;28;20176;-77
2022/02/08 07:09:35;;;;;;;1999.90;999.90;;;7.90;99.90;;;;;;5034770;28;20165;-77
2022/02/08 07:12:00;;;;;;;1999.90;999.90;;;7.90;99.90;;;;;;5034881;28;20412;-77
2022/02/08 07:14:31;;;;;;;1999.90;999.90;;;7.90;99.90;;;;;;5034203;28;20266;-77
2022/02/08 07:16:57;;;;;;;1999.90;999.90;;;7.90;99.90;;;;;;5034620;28;20168;-77
2022/02/08 07:19:22;;;;;;;1999.90;999.90;;;7.90;99.90;;;;;;5034429;28;20406;-77
2022/02/08 07:21:48;;;;;;;1999.90;999.90;;;7.90;99.90;;;;;;5034406;28;20708;-77
2022/02/08 07:24:16;;;;;;;1999.90;999.90;;;7.90;99.90;;;;;;5034066;28;20634;-78
2022/02/08 07:26:42;;;;;;;1999.90;999.90;;;7.90;99.90;;;;;;5034308;28;20173;-77
2022/02/08 07:29:08;;;;;;;1999.90;999.90;;;7.90;99.90;;;;;;5034367;28;20414;-78
2022/02/08 07:31:42;;;;;;;1999.90;999.90;;;7.90;99.90;;;;;;5034713;28;20908;-77
2022/02/08 07:34:18;;;;;;;1999.90;999.90;;;7.90;99.90;;;;;;5034074;28;20455;-78
2022/02/08 07:39:55;;;;;;;1999.90;999.90;;;8.00;99.90;;;;;;5034570;28;20399;-77
2022/02/08 07:42:13;;;;;;;1999.90;999.90;;;8.00;99.90;;;;;;5031885;28;20782;-78
2022/02/08 07:44:39;;;;;;;1999.90;999.90;;;8.00;99.90;;;;;;5032656;28;20481;-78
2022/02/08 07:47:05;;;;;;;1999.90;999.90;;;8.00;99.90;;;;;;5034390;28;20169;-77
2022/02/08 07:49:33;;;;;;;1999.90;999.90;;;8.10;99.90;;;;;;5035926;28;20888;-79
2022/02/08 07:51:59;;;;;;;1999.90;999.90;;;8.10;99.90;;;;;;5034299;28;20233;-78
2022/02/08 07:54:24;;;;;;;1999.90;999.90;;;8.10;99.90;;;;;;5034276;28;20521;-78
2022/02/08 07:56:50;;;;;;;1999.90;999.90;;;8.20;99.90;;;;;;5033864;28;20407;-78
2022/02/08 07:59:16;;;;;;;1999.90;999.90;;;8.20;99.90;;;;;;5034459;28;20168;-79
2022/02/08 08:01:41;;;;;;;1999.90;999.90;;;8.20;99.90;;;;;;5035388;28;20180;-78
2022/02/08 08:04:07;;;;;;;1999.90;999.90;;;8.20;99.90;;;;;;5033864;28;20665;-78
2022/02/08 08:06:33;;;;;;;1999.90;999.90;;;8.30;99.90;;;;;;5034342;28;20588;-77
2022/02/08 08:08:58;;;;;;;1999.90;999.90;;;8.40;99.90;;;;;;5033592;28;20255;-77
2022/02/08 08:11:24;;;;;;;1999.90;999.90;;;8.40;99.90;;;;;;5033392;28;20525;-77
2022/02/08 08:14:00;;;;;;;1999.90;999.90;;;8.40;99.90;;;;;;5033095;28;20208;-78
2022/02/08 08:19:18;;;;;;;1999.90;999.90;;;8.50;99.90;;;;;;5033551;28;20398;-77
2022/02/08 08:21:44;;;;;;;1999.90;999.90;;;8.60;99.90;;;;;;5033341;28;20407;-78
2022/02/08 08:24:10;;;;;;;1999.90;999.90;;;8.60;99.90;;;;;;5032842;28;20947;-77
2022/02/08 08:26:37;;;;;;;1999.90;999.90;;;8.60;99.90;;;;;;5033067;28;20222;-78
2022/02/08 08:29:03;;;;;;;1999.90;999.90;;;8.70;99.90;;;;;;5033223;28;20183;-77
2022/02/08 08:31:29;;;;;;;1999.90;999.90;;;8.70;99.90;;;;;;5033081;28;20410;-77
2022/02/08 08:33:54;;;;;;;1999.90;999.90;;;8.80;99.90;;;;;;5032894;28;20470;-77
2022/02/08 08:36:21;;;;;;;1999.90;999.90;;;8.80;99.90;;;;;;5032748;28;20439;-77
2022/02/08 08:38:49;;;;;;;1999.90;999.90;;;8.90;99.90;;;;;;5031613;28;20219;-77
2022/02/08 08:41:31;;;;;;;1999.90;999.90;;;8.90;99.90;;;;;;5032873;28;20494;-77
2022/02/08 08:49:24;;;;;;;1999.90;999.90;;;8.90;99.90;;;;;;5033088;28;20211;-77
2022/02/08 08:51:52;;;;;;;1999.90;999.90;;;8.90;99.90;;;;;;5032790;28;20431;-77
2022/02/08 08:54:19;;;;;;;1999.90;999.90;;;9.00;99.90;;;;;;5032172;28;20462;-79
2022/02/08 08:56:46;;;;;;;1999.90;999.90;;;9.10;99.90;;;;;;5032594;28;20411;-77
2022/02/08 08:59:13;;;;;;;1999.90;999.90;;;9.10;99.90;;;;;;5031306;28;20821;-78
2022/02/08 09:01:39;;;;;;;1999.90;999.90;;;9.10;99.90;;;;;;5032540;28;20772;-77
2022/02/08 09:04:07;;;;;;;1999.90;999.90;;;9.20;99.90;;;;;;5032084;28;20431;-77
2022/02/08 09:06:34;;;;;;;1999.90;999.90;;;9.20;99.90;;;;;;5032049;28;20407;-78
2022/02/08 09:09:04;;;;;;;1999.90;999.90;;;9.30;99.90;;;;;;5045609;28;20811;-78
2022/02/08 09:11:51;;;;;;;1999.90;999.90;;;9.30;99.90;;;;;;5050586;28;20419;-78
2022/02/08 09:14:19;;;;;;;1999.90;999.90;;;9.40;99.90;;;;;;5051398;28;20466;-78
2022/02/08 09:17:17;;;;;;;1999.90;999.90;;;9.40;99.90;;;;;;5047826;28;20420;-78
2022/02/08 09:20:14;;;;;;;1999.90;999.90;;;9.40;99.90;;;;;;5051530;28;20470;-77
2022/02/08 09:30:15;;;;;;;1999.90;999.90;;;9.60;99.90;;;;;;5048791;28;20776;-79
2022/02/08 09:32:47;;;;;;;1999.90;999.90;;;9.60;99.90;;;;;;5050976;28;20423;-79
2022/02/08 09:35:15;;;;;;;1999.90;999.90;;;9.60;99.90;;;;;;5052215;28;20455;-75
2022/02/08 09:37:42;;;;;;;1999.90;999.90;;;9.60;99.90;;;;;;5052586;28;20415;-77
2022/02/08 09:40:09;;;;;;;1999.90;999.90;;;9.60;99.90;;;;;;5050321;28;20407;-77
2022/02/08 09:42:39;;;;;;;1999.90;999.90;;;9.70;99.90;;;;;;5050084;28;20757;-79
2022/02/08 09:45:07;;;;;;;1999.90;999.90;;;9.70;99.90;;;;;;5048303;28;20415;-78
2022/02/08 09:50:25;;;;;;;1999.90;999.90;;;9.80;99.90;;;;;;5040129;28;20469;-79
2022/02/08 09:52:53;;;;;;;1999.90;999.90;;;9.80;99.90;;;;;;5020669;28;20435;-77
2022/02/08 09:55:21;;;;;;;1999.90;999.90;;;9.80;99.90;;;;;;5012953;28;20448;-77
2022/02/08 09:57:48;;;;;;;1999.90;999.90;;;9.90;99.90;;;;;;5014254;28;20400;-78
2022/02/08 10:00:15;;;;;;;1999.90;999.90;;;9.90;99.90;;;;;;5013027;28;20406;-76
2022/02/08 10:02:41;;;;;;;1999.90;999.90;;;9.90;99.90;;;;;;5011947;28;20451;-77
2022/02/08 10:05:08;;;;;;;1999.90;999.90;;;9.90;99.90;;;;;;5012156;28;20433;-77
2022/02/08 10:07:35;;;;;;;1999.90;999.90;;;9.90;99.90;;;;;;5013531;28;20164;-78
2022/02/08 10:10:04;;;;;;;1999.90;999.90;;;9.90;99.90;;;;;;5017247;28;20415;-77
2022/02/08 10:13:01;;;;;;;1999.90;999.90;;;10.00;99.90;;;;;;5012497;28;21094;-77
2022/02/08 10:24:00;;;;;;;1999.90;999.90;;;10.10;99.90;;;;;;5018570;28;20530;-77
2022/02/08 10:26:38;;;;;;;1999.90;999.90;;;10.00;99.90;;;;;;5022642;28;20412;-77
2022/02/08 10:29:19;;;;;;;1999.90;999.90;;;10.00;99.90;;;;;;5017885;28;20495;-76
2022/02/08 10:32:03;;;;;;;1999.90;999.90;;;10.00;99.90;;;;;;5016763;28;20405;-76
2022/02/08 10:40:03;;;;;;;1999.90;999.90;;;10.10;99.90;;;;;;5015119;28;20420;-74
2022/02/08 10:42:29;;;;;;;1999.90;999.90;;;10.20;99.90;;;;;;5015122;28;20835;-75
2022/02/08 10:44:58;;;;;;;1999.90;999.90;;;10.20;99.90;;;;;;5014488;28;20428;-75
2022/02/08 10:47:35;;;;;;;1999.90;999.90;;;10.20;99.90;;;;;;5014721;28;20447;-74
2022/02/08 10:50:03;;;;;;;1999.90;999.90;;;10.20;99.90;;;;;;5014495;28;20401;-75
2022/02/08 10:52:30;;;;;;;1999.90;999.90;;;10.20;99.90;;;;;;5014489;28;20413;-75
2022/02/08 10:55:01;;;;;;;1999.90;999.90;;;10.20;99.90;;;;;;5014544;28;20453;-75
2022/02/08 10:57:39;;;;;;;1999.90;999.90;;;10.30;99.90;;;;;;5014912;28;20439;-74
2022/02/08 11:00:06;;;;;;;1999.90;999.90;;;10.30;99.90;;;;;;5014414;28;20407;-75
2022/02/08 11:02:43;;;;;;;1999.90;999.90;;;10.30;99.90;;;;;;5013423;28;20501;-75
2022/02/08 11:05:29;;;;;;;1999.90;999.90;;;10.40;99.90;;;;;;5014351;28;21106;-75
2022/02/08 11:20:48;;;;;;;1999.90;999.90;;;10.60;99.90;;;;;;5014290;28;20420;-76
2022/02/08 11:23:21;;;;;;;1999.90;999.90;;;10.50;99.90;;;;;;5014411;28;20414;-76
2022/02/08 11:25:50;;;;;;;1999.90;999.90;;;10.60;99.90;;;;;;5024639;28;20430;-77
2022/02/08 11:31:33;;;;;;;1999.90;999.90;;;10.60;99.90;;;;;;5033573;28;20502;-77
2022/02/08 12:00:17;;;;;;;1999.90;999.90;;;10.90;99.90;;;;;;5032956;28;20430;-77
2022/02/08 12:08:23;;;;;;;1999.90;999.90;;;11.10;99.90;;;;;;5011465;28;20505;-75
2022/02/08 12:10:57;;;;;;;1999.90;999.90;;;11.20;99.90;;;;;;5032808;28;20955;-76
2022/02/08 12:13:55;;;;;;;1999.90;999.90;;;11.20;99.90;;;;;;5033059;28;20198;-78
2022/02/08 14:02:15;;;;;;;1999.90;999.90;;;13.30;99.90;;;;;;5035720;28;20503;-76
2022/02/08 14:05:47;;;;;;;1999.90;999.90;;;13.10;99.90;;;;;;5035405;28;20457;-76
2022/02/08 14:07:34;;;;;;;1999.90;999.90;;;12.90;99.90;;;;;;5028356;28;20509;-75
2022/02/08 14:10:06;;;;;;;1999.90;999.90;;;12.70;99.90;;;;;;5035147;28;20968;-76
2022/02/08 14:20:41;;;;;;;1999.90;999.90;;;12.30;99.90;;;;;;5010868;28;20516;-76
2022/02/08 14:37:14;;;;;;;1999.90;999.90;;;12.50;99.90;;;;;;5010859;28;20411;-76
2022/02/08 15:09:50;;;;;;;1999.90;999.90;;;11.10;99.90;;;;;;5019143;28;20453;-77
2022/02/08 15:12:19;;;;;;;1999.90;999.90;;;11.00;99.90;;;;;;5036028;28;20507;-77
2022/02/08 15:14:49;;;;;;;1999.90;999.90;;;10.80;99.90;;;;;;5028577;28;21067;-76
2022/02/08 15:17:16;;;;;;;1999.90;999.90;;;10.70;99.90;;;;;;5030535;28;20412;-76
2022/02/08 15:19:43;;;;;;;1999.90;999.90;;;10.60;99.90;;;;;;5028139;28;20466;-77
2022/02/08 15:22:10;;;;;;;1999.90;999.90;;;10.70;99.90;;;;;;5022249;28;20481;-77
2022/02/08 15:24:36;;;;;;;1999.90;999.90;;;10.80;99.90;;;;;;5030801;28;20942;-75
2022/02/08 15:27:03;;;;;;;1999.90;999.90;;;10.80;99.90;;;;;;5029812;28;20837;-76
2022/02/08 15:29:30;;;;;;;1999.90;999.90;;;10.90;99.90;;;;;;5029169;28;20410;-75
2022/02/08 15:31:56;;;;;;;1999.90;999.90;;;11.00;99.90;;;;;;5028609;28;21007;-75
2022/02/08 15:34:22;;;;;;;1999.90;999.90;;;11.10;99.90;;;;;;5028929;28;20462;-76
2022/02/08 15:36:48;;;;;;;1999.90;999.90;;;11.60;99.90;;;;;;5029641;28;20472;-76
2022/02/08 15:39:14;;;;;;;1999.90;999.90;;;11.70;99.90;;;;;;5030117;28;20857;-76
2022/02/08 15:41:40;;;;;;;1999.90;999.90;;;11.70;99.90;;;;;;5029783;28;20258;-76
2022/02/08 15:44:17;;;;;;;1999.90;999.90;;;11.70;99.90;;;;;;5029561;28;20287;-75
2022/02/08 15:46:43;;;;;;;1999.90;999.90;;;11.70;99.90;;;;;;5029303;28;20434;-75
2022/02/08 15:49:09;;;;;;;1999.90;999.90;;;12.70;99.90;;;;;;5029797;28;20460;-75
2022/02/08 15:51:59;;;;;;;1999.90;999.90;;;13.90;99.90;;;;;;5029449;28;20419;-76
2022/02/08 16:07:19;;;;;;;1999.90;999.90;;;12.20;99.90;;;;;;5033804;28;20425;-78
2022/02/08 16:17:40;;;;;;;1999.90;999.90;;;11.60;99.90;;;;;;5029323;28;20414;-77
2022/02/08 16:49:46;;;;;;;1999.90;999.90;;;10.80;99.90;;;;;;5031948;28;20426;-77
2022/02/08 16:55:14;;;;;;;1999.90;999.90;;;10.80;99.90;;;;;;5031624;28;21047;-77
2022/02/08 16:57:56;;;;;;;1999.90;999.90;;;10.80;99.90;;;;;;5031865;28;20509;-77
2022/02/08 17:00:24;;;;;;;1999.90;999.90;;;10.70;99.90;;;;;;5031039;28;20432;-76
2022/02/08 17:02:56;;;;;;;1999.90;999.90;;;10.70;99.90;;;;;;5031341;28;20445;-75
2022/02/08 17:05:22;;;;;;;1999.90;999.90;;;10.60;99.90;;;;;;5027774;28;20422;-77
2022/02/08 17:07:48;;;;;;;1999.90;999.90;;;10.50;99.90;;;;;;5029461;28;20886;-77
2022/02/08 17:10:36;;;;;;;1999.90;999.90;;;10.50;99.90;;;;;;5028568;28;20169;-76
2022/02/08 17:16:05;;;;;;;1999.90;999.90;;;10.40;99.90;;;;;;5030810;28;20463;-78
2022/02/08 17:45:46;;;;;;;1999.90;999.90;;;10.50;99.90;;;;;;5026874;28;20424;-77
2022/02/08 17:48:10;;;;;;;1999.90;999.90;;;10.50;99.90;;;;;;5028125;28;20414;-77
2022/02/08 17:50:36;;;;;;;1999.90;999.90;;;10.50;99.90;;;;;;5027079;28;20512;-77
2022/02/08 17:53:03;;;;;;;1999.90;999.90;;;10.50;99.90;;;;;;5027420;28;20230;-77
2022/02/08 17:55:29;;;;;;;1999.90;999.90;;;10.40;99.90;;;;;;5027347;28;20233;-77
2022/02/08 17:57:55;;;;;;;1999.90;999.90;;;10.40;99.90;;;;;;5027880;28;20424;-77
2022/02/08 18:00:21;;;;;;;1999.90;999.90;;;10.40;99.90;;;;;;5027993;28;20413;-77
2022/02/08 18:02:48;;;;;;;1999.90;999.90;;;10.40;99.90;;;;;;5027348;28;20421;-77
2022/02/08 18:05:15;;;;;;;1999.90;999.90;;;10.30;99.90;;;;;;5025925;28;20463;-77
2022/02/08 18:07:41;;;;;;;1999.90;999.90;;;10.30;99.90;;;;;;5027800;28;20508;-77
2022/02/08 18:10:08;;;;;;;1999.90;999.90;;;10.20;99.90;;;;;;5026187;28;20421;-77
2022/02/08 18:12:36;;;;;;;1999.90;999.90;;;10.20;99.90;;;;;;5027501;28;20425;-77
2022/02/08 18:15:08;;;;;;;1999.90;999.90;;;10.20;99.90;;;;;;5026602;28;20831;-77
2022/02/08 18:17:38;;;;;;;1999.90;999.90;;;10.10;99.90;;;;;;5027182;28;20627;-77
2022/02/08 19:14:05;;;;;;;1999.90;999.90;;;10.30;99.90;;;;;;5030619;28;21475;-77
2022/02/08 19:16:35;;;;;;;1999.90;999.90;;;10.40;99.90;;;;;;5030768;28;20469;-78
2022/02/08 19:23:52;;;;;;;1999.90;999.90;;;10.20;99.90;;;;;;5030741;28;20192;-78
2022/02/08 19:26:18;;;;;;;1999.90;999.90;;;10.30;99.90;;;;;;5036188;28;20183;-77
2022/02/08 19:28:45;;;;;;;1999.90;999.90;;;10.30;99.90;;;;;;5041156;28;21049;-78
2022/02/08 19:31:11;;;;;;;1999.90;999.90;;;10.30;99.90;;;;;;5040553;28;20266;-78
2022/02/08 19:33:36;;;;;;;1999.90;999.90;;;10.40;99.90;;;;;;5040609;28;20465;-78
2022/02/08 19:36:02;;;;;;;1999.90;999.90;;;10.40;99.90;;;;;;5038959;28;20544;-77
2022/02/08 19:38:28;;;;;;;1999.90;999.90;;;10.30;99.90;;;;;;5041111;28;20205;-77
2022/02/08 19:40:55;;;;;;;1999.90;999.90;;;10.30;99.90;;;;;;5042289;28;20410;-78
2022/02/08 19:43:21;;;;;;;1999.90;999.90;;;10.30;99.90;;;;;;5040031;28;20447;-78
2022/02/08 19:45:47;;;;;;;1999.90;999.90;;;10.30;99.90;;;;;;5041574;28;20487;-77
2022/02/08 19:48:14;;;;;;;1999.90;999.90;;;10.40;99.90;;;;;;5042394;28;20476;-77
2022/02/08 19:50:42;;;;;;;1999.90;999.90;;;10.30;99.90;;;;;;5039240;28;20420;-77
2022/02/08 19:53:08;;;;;;;1999.90;999.90;;;10.30;99.90;;;;;;5040022;28;20821;-78
2022/02/08 19:58:12;;;;;;;1999.90;999.90;;;10.20;99.90;;;;;;5048885;28;20426;-78
2022/02/08 20:00:41;;;;;;;1999.90;999.90;;;10.30;99.90;;;;;;5047715;28;20440;-78
2022/02/08 20:03:09;;;;;;;1999.90;999.90;;;10.20;99.90;;;;;;5051135;28;20431;-78
2022/02/08 20:05:36;;;;;;;1999.90;999.90;;;10.20;99.90;;;;;;5050625;28;20416;-78
2022/02/08 20:08:03;;;;;;;1999.90;999.90;;;10.20;99.90;;;;;;5044985;28;20415;-78
2022/02/08 20:10:29;;;;;;;1999.90;999.90;;;10.20;99.90;;;;;;5041974;28;20439;-78
2022/02/08 20:12:55;;;;;;;1999.90;999.90;;;10.20;99.90;;;;;;5042239;28;20419;-78
2022/02/08 20:15:21;;;;;;;1999.90;999.90;;;10.20;99.90;;;;;;5043290;28;20203;-78
2022/02/08 20:17:50;;;;;;;1999.90;999.90;;;10.20;99.90;;;;;;5043960;28;20594;-77
2022/02/08 20:20:17;;;;;;;1999.90;999.90;;;10.20;99.90;;;;;;5043093;28;21028;-78
2022/02/08 20:22:49;;;;;;;1999.90;999.90;;;10.20;99.90;;;;;;5036457;28;20460;-78
2022/02/08 20:25:18;;;;;;;1999.90;999.90;;;10.20;99.90;;;;;;5033671;28;20491;-79
2022/02/08 20:27:51;;;;;;;1999.90;999.90;;;10.20;99.90;;;;;;5032605;28;20421;-79
2022/02/08 20:30:24;;;;;;;1999.90;999.90;;;10.20;99.90;;;;;;5032355;28;20758;-77
2022/02/08 20:32:52;;;;;;;1999.90;999.90;;;10.20;99.90;;;;;;5032674;28;20403;-78
2022/02/08 20:35:19;;;;;;;1999.90;999.90;;;10.20;99.90;;;;;;5031902;28;20571;-78
2022/02/08 20:37:44;;;;;;;1999.90;999.90;;;10.30;99.90;;;;;;5032678;28;21068;-79